Time;durP1;ratioP1;P1;durP2;ratioP2;P2;SDS_P1;SDS_P2;PMS_P1;PMS_P2;Temp;Humidity;BMP_temperature;BMP_pressure;BME280_temperature;BME280_humidity;BME280_pressure;Samples;Min_cycle;Max_cycle;Signal;HPM_P1;HPM_P2
2022/10/17 00:02:24;;;;;;;5.47;2.90;;;;;;;14.03;41.93;100164.44;5070276;28;20024;-73
2022/10/17 00:04:50;;;;;;;5.22;2.80;;;;;;;14.01;42.15;100171.59;5070280;28;20031;-74
2022/10/17 00:07:15;;;;;;;4.38;2.83;;;;;;;13.96;42.09;100164.97;5070288;28;20049;-74
2022/10/17 00:09:42;;;;;;;4.88;2.45;;;;;;;13.94;42.25;100172.94;5070501;28;20040;-74
2022/10/17 00:12:07;;;;;;;7.55;2.75;;;;;;;13.93;42.12;100171.25;5070222;28;20032;-74
2022/10/17 00:14:33;;;;;;;5.47;2.78;;;;;;;13.88;42.07;100168.97;5070477;28;20024;-73
2022/10/17 00:16:59;;;;;;;3.83;2.53;;;;;;;13.87;42.32;100163.81;5073032;28;20115;-73
2022/10/17 00:19:24;;;;;;;7.70;2.90;;;;;;;13.78;42.25;100157.38;5073947;28;20035;-74
2022/10/17 00:21:50;;;;;;;5.05;2.83;;;;;;;13.82;42.23;100174.63;5067395;28;20079;-74
2022/10/17 00:24:15;;;;;;;6.68;2.70;;;;;;;13.74;42.35;100159.38;5020844;28;20033;-74
2022/10/17 00:26:41;;;;;;;5.53;2.90;;;;;;;13.75;42.36;100161.03;5020824;28;20064;-74
2022/10/17 00:29:06;;;;;;;5.60;2.85;;;;;;;13.74;42.24;100171.66;5037252;28;20096;-73
2022/10/17 00:31:32;;;;;;;4.15;2.80;;;;;;;13.68;42.46;100158.97;5053697;28;20476;-74
2022/10/17 00:33:57;;;;;;;5.47;2.53;;;;;;;13.72;42.41;100163.03;5020217;28;20119;-74
2022/10/17 00:36:24;;;;;;;5.72;2.70;;;;;;;13.73;42.19;100175.22;5053851;28;20086;-74
2022/10/17 00:38:53;;;;;;;3.75;2.70;;;;;;;13.69;42.39;100161.44;5037238;28;20028;-74
2022/10/17 00:41:20;;;;;;;8.05;3.00;;;;;;;13.68;42.31;100164.22;5037190;28;20029;-74
2022/10/17 00:43:56;;;;;;;5.97;3.20;;;;;;;13.69;42.50;100168.50;5020534;28;20033;-74
2022/10/17 00:46:24;;;;;;;4.93;3.05;;;;;;;13.65;42.41;100162.63;5053873;28;20031;-75
2022/10/17 00:48:50;;;;;;;7.00;3.13;;;;;;;13.60;42.33;100153.34;5037009;28;20036;-75
2022/10/17 00:51:16;;;;;;;4.32;2.90;;;;;;;13.61;42.54;100165.53;5020292;28;20053;-75
2022/10/17 00:53:41;;;;;;;5.00;2.70;;;;;;;13.53;42.59;100160.78;5019934;28;20110;-74
2022/10/17 00:56:07;;;;;;;4.90;3.10;;;;;;;13.57;42.66;100178.03;5053307;28;20056;-74
2022/10/17 00:58:32;;;;;;;5.45;2.80;;;;;;;13.53;42.78;100166.03;5020319;28;20087;-74
2022/10/17 01:00:58;;;;;;;6.85;3.05;;;;;;;13.49;42.64;100168.03;5037102;28;20044;-74
2022/10/17 01:03:23;;;;;;;9.48;3.03;;;;;;;13.51;42.75;100178.44;5036863;28;20021;-75
2022/10/17 01:05:49;;;;;;;4.40;2.47;;;;;;;13.50;42.69;100179.34;5037041;28;20076;-74
2022/10/17 01:08:14;;;;;;;5.90;2.85;;;;;;;13.50;42.51;100171.50;5053000;28;20043;-74
2022/10/17 01:11:15;;;;;;;3.95;2.65;;;;;;;13.48;42.88;100173.38;5037613;28;20044;-74
2022/10/17 01:13:52;;;;;;;4.53;2.90;;;;;;;13.44;42.97;100166.66;5055247;28;20400;-74
2022/10/17 01:16:39;;;;;;;10.02;2.60;;;;;;;13.42;42.88;100169.38;5074404;28;20049;-74
2022/10/17 01:19:22;;;;;;;5.93;2.88;;;;;;;13.41;42.65;100159.84;5077967;28;20116;-74
2022/10/17 01:21:54;;;;;;;5.32;2.67;;;;;;;13.39;42.80;100159.06;5092346;28;20120;-74
2022/10/17 01:24:44;;;;;;;4.53;2.70;;;;;;;13.36;43.04;100161.91;5075881;28;20032;-73
2022/10/17 01:27:49;;;;;;;4.15;2.70;;;;;;;13.36;42.65;100154.88;5091545;28;20106;-72
2022/10/17 01:30:52;;;;;;;4.03;2.53;;;;;;;13.33;42.76;100154.22;5080806;28;20079;-74
2022/10/17 01:33:29;;;;;;;6.25;3.10;;;;;;;13.33;43.04;100162.94;5092117;28;20501;-75
2022/10/17 01:36:08;;;;;;;4.15;2.92;;;;;;;13.31;42.72;100148.22;5092501;28;20028;-74
2022/10/17 01:38:40;;;;;;;6.63;2.97;;;;;;;13.35;42.41;100155.00;5058743;28;20110;-74
2022/10/17 01:41:14;;;;;;;5.78;2.95;;;;;;;13.45;42.49;100168.34;5059454;28;20043;-74
2022/10/17 01:43:54;;;;;;;9.60;2.80;;;;;;;13.47;42.19;100169.94;5075380;28;20086;-74
2022/10/17 01:46:48;;;;;;;5.82;3.15;;;;;;;13.50;42.36;100172.31;5059469;28;20097;-73
2022/10/17 01:49:14;;;;;;;5.20;3.10;;;;;;;13.47;42.21;100164.69;5086695;28;20036;-74
2022/10/17 01:51:42;;;;;;;6.20;3.17;;;;;;;13.56;42.01;100190.28;5056074;28;20432;-74
2022/10/17 01:54:12;;;;;;;6.95;3.30;;;;;;;13.58;42.18;100174.44;5072560;28;20044;-74
2022/10/17 01:56:37;;;;;;;6.80;3.40;;;;;;;13.62;42.00;100180.34;5072969;28;20028;-74
2022/10/17 01:59:10;;;;;;;6.03;3.25;;;;;;;13.61;42.50;100186.53;5072542;28;20403;-74
2022/10/17 02:01:36;;;;;;;5.15;2.97;;;;;;;13.54;42.30;100181.69;5072491;28;20024;-74
2022/10/17 02:04:02;;;;;;;7.07;3.20;;;;;;;13.58;42.45;100187.56;5072177;28;20079;-74
2022/10/17 02:06:27;;;;;;;5.75;3.03;;;;;;;13.49;43.00;100183.78;5072243;28;20036;-74
2022/10/17 02:08:53;;;;;;;4.57;3.08;;;;;;;13.52;42.61;100186.19;5072151;28;20028;-75
2022/10/17 02:11:25;;;;;;;5.95;3.42;;;;;;;13.49;42.95;100196.88;5072091;28;20055;-74
2022/10/17 02:14:16;;;;;;;6.47;3.38;;;;;;;13.52;42.73;100199.31;5055972;28;20059;-74
2022/10/17 02:16:47;;;;;;;4.55;3.15;;;;;;;13.52;42.89;100201.06;5058228;28;20059;-74
2022/10/17 02:19:44;;;;;;;4.30;2.95;;;;;;;13.49;42.65;100193.41;5056234;28;20036;-74
2022/10/17 02:22:42;;;;;;;5.67;3.10;;;;;;;13.47;43.13;100192.69;5072086;28;20029;-75
2022/10/17 02:25:18;;;;;;;5.45;3.33;;;;;;;13.43;42.85;100194.66;5072056;28;20032;-74
2022/10/17 02:27:53;;;;;;;7.82;3.08;;;;;;;13.34;43.03;100188.22;5071834;28;20037;-74
2022/10/17 02:30:53;;;;;;;5.93;3.10;;;;;;;13.35;43.44;100196.94;5038762;28;20049;-74
2022/10/17 02:33:26;;;;;;;4.40;3.13;;;;;;;13.32;43.36;100192.69;5056779;28;20056;-74
2022/10/17 02:35:54;;;;;;;8.43;3.20;;;;;;;13.24;43.21;100181.88;5072069;28;20025;-74
2022/10/17 02:38:20;;;;;;;6.32;3.05;;;;;;;13.24;43.53;100194.97;5071440;28;20044;-75
2022/10/17 02:40:46;;;;;;;8.25;4.03;;;;;;;13.23;43.33;100192.47;5055161;28;20036;-74
2022/10/17 02:43:11;;;;;;;10.95;3.15;;;;;;;13.20;43.28;100196.09;5071459;28;20111;-74
2022/10/17 02:45:37;;;;;;;5.03;2.88;;;;;;;13.17;43.63;100202.41;5071532;28;20484;-74
2022/10/17 02:48:06;;;;;;;6.35;2.90;;;;;;;13.11;43.63;100197.56;5070819;28;20040;-74
2022/10/17 02:51:03;;;;;;;4.68;3.03;;;;;;;13.11;43.87;100201.94;5071946;28;20115;-74
2022/10/17 02:53:41;;;;;;;7.18;3.00;;;;;;;13.09;43.84;100212.50;5014697;28;20053;-74
2022/10/17 02:56:11;;;;;;;6.60;3.20;;;;;;;13.01;43.80;100212.16;5030678;28;20036;-74
2022/10/17 02:58:36;;;;;;;5.05;2.95;;;;;;;13.01;44.03;100215.66;4998090;28;20132;-74
2022/10/17 03:01:02;;;;;;;7.97;3.00;;;;;;;12.99;43.75;100220.13;4998017;28;20119;-74
2022/10/17 03:03:29;;;;;;;4.47;2.97;;;;;;;12.99;43.58;100232.41;4997611;28;20048;-74
2022/10/17 03:05:54;;;;;;;5.90;2.60;;;;;;;12.97;43.85;100234.28;4997810;28;20487;-74
2022/10/17 03:08:20;;;;;;;4.10;2.83;;;;;;;12.91;43.89;100226.78;4997709;28;20037;-74
2022/10/17 03:10:45;;;;;;;5.93;3.70;;;;;;;12.92;43.89;100233.69;5013991;28;20043;-74
2022/10/17 03:13:11;;;;;;;5.78;3.22;;;;;;;12.87;43.72;100230.53;4997403;28;20088;-74
2022/10/17 03:15:36;;;;;;;4.75;2.85;;;;;;;12.87;43.55;100236.59;4997631;28;20053;-74
2022/10/17 03:18:02;;;;;;;6.43;3.10;;;;;;;12.86;43.67;100234.94;4997495;28;20410;-74
2022/10/17 03:20:27;;;;;;;4.97;3.10;;;;;;;12.83;43.24;100233.34;5030344;28;20489;-74
2022/10/17 03:22:53;;;;;;;6.88;2.92;;;;;;;12.81;43.46;100229.16;4997163;28;20045;-74
2022/10/17 03:25:18;;;;;;;5.57;3.05;;;;;;;12.78;43.35;100229.34;4997336;28;20400;-75
2022/10/17 03:27:44;;;;;;;4.63;2.72;;;;;;;12.77;42.97;100233.72;5013196;28;20056;-75
2022/10/17 03:30:10;;;;;;;7.00;2.40;;;;;;;12.77;43.02;100235.50;5032637;28;20052;-75
2022/10/17 03:32:35;;;;;;;6.78;3.00;;;;;;;12.73;42.84;100231.38;5071109;28;20036;-74
2022/10/17 03:35:01;;;;;;;5.20;2.35;;;;;;;12.73;43.05;100231.38;5070978;28;20066;-74
2022/10/17 03:37:26;;;;;;;5.60;2.60;;;;;;;12.73;42.91;100234.84;5071637;28;20072;-74
2022/10/17 03:39:52;;;;;;;3.85;2.53;;;;;;;12.78;43.10;100240.66;5070919;28;20389;-75
2022/10/17 03:42:17;;;;;;;5.70;2.30;;;;;;;12.77;42.88;100241.56;5070659;28;20044;-75
2022/10/17 03:44:43;;;;;;;4.88;2.85;;;;;;;12.71;42.69;100228.84;5070979;28;20043;-75
2022/10/17 03:47:08;;;;;;;4.55;2.50;;;;;;;12.73;42.76;100245.34;5070894;28;20036;-74
2022/10/17 03:49:34;;;;;;;3.97;2.67;;;;;;;12.71;42.65;100247.19;5037494;28;20411;-74
2022/10/17 03:51:59;;;;;;;8.23;3.03;;;;;;;12.72;42.90;100255.91;5057337;28;20055;-73
2022/10/17 03:54:24;;;;;;;6.10;3.10;;;;;;;12.67;42.78;100253.56;5075252;28;20032;-74
2022/10/17 03:56:50;;;;;;;7.00;3.15;;;;;;;12.66;43.02;100265.81;5074799;28;20435;-74
2022/10/17 03:59:16;;;;;;;10.60;3.33;;;;;;;12.63;43.11;100257.28;5074732;28;20071;-74
2022/10/17 04:01:42;;;;;;;6.97;3.58;;;;;;;12.62;43.00;100266.94;5074737;28;20029;-74
2022/10/17 04:04:07;;;;;;;10.15;4.03;;;;;;;12.64;42.75;100270.31;5091468;28;20150;-74
2022/10/17 04:06:33;;;;;;;9.40;4.13;;;;;;;12.58;42.94;100265.44;5074799;28;20020;-73
2022/10/17 04:08:59;;;;;;;12.60;4.15;;;;;;;12.60;42.96;100273.19;5057982;28;20135;-74
2022/10/17 04:11:24;;;;;;;9.88;4.25;;;;;;;12.55;42.80;100262.16;5074372;28;20086;-74
2022/10/17 04:13:54;;;;;;;8.60;3.72;;;;;;;12.55;42.92;100270.84;5074701;28;20036;-74
2022/10/17 04:16:19;;;;;;;6.68;3.78;;;;;;;12.53;42.94;100272.72;5074628;28;20170;-74
2022/10/17 04:18:45;;;;;;;5.88;3.30;;;;;;;12.49;43.29;100269.47;5074494;28;20032;-73
2022/10/17 04:21:11;;;;;;;5.82;3.35;;;;;;;12.52;42.96;100280.69;5074298;28;20043;-74
2022/10/17 04:23:36;;;;;;;5.38;3.10;;;;;;;12.49;43.05;100274.69;5074396;28;20545;-74
2022/10/17 04:26:02;;;;;;;8.75;3.15;;;;;;;12.49;43.07;100286.94;5074240;28;20029;-74
2022/10/17 04:28:28;;;;;;;8.40;3.03;;;;;;;12.51;42.46;100276.38;5057728;28;20048;-74
2022/10/17 04:31:04;;;;;;;6.70;2.65;;;;;;;12.47;42.75;100265.25;5074053;28;20419;-75
2022/10/17 04:33:30;;;;;;;5.65;3.22;;;;;;;12.48;42.40;100265.16;5075727;28;20033;-75
2022/10/17 04:35:59;;;;;;;4.70;2.97;;;;;;;12.58;42.26;100275.91;5074033;28;20048;-75
2022/10/17 04:38:24;;;;;;;;;;;;;;;12.66;42.29;100275.44;5074209;28;20020;-75
2022/10/17 04:40:49;;;;;;;6.28;2.60;;;;;;;12.77;42.00;100275.63;5073915;28;20409;-74
2022/10/17 04:43:15;;;;;;;7.05;2.60;;;;;;;13.08;41.23;100286.00;5073742;28;20024;-74
2022/10/17 04:45:41;;;;;;;4.53;2.60;;;;;;;13.32;40.81;100284.50;5073941;28;20411;-75
2022/10/17 04:48:06;;;;;;;5.78;3.03;;;;;;;13.64;40.14;100267.66;5057298;28;20036;-75
2022/10/17 04:50:32;;;;;;;7.35;2.30;;;;;;;14.19;38.89;100290.28;5075476;28;20064;-74
2022/10/17 04:52:58;;;;;;;4.55;2.47;;;;;;;14.71;38.24;100287.75;5073833;28;20040;-75
2022/10/17 04:55:23;;;;;;;4.85;2.47;;;;;;;15.23;36.98;100292.00;5056805;28;20024;-75
2022/10/17 04:57:49;;;;;;;3.85;2.20;;;;;;;15.78;35.79;100286.34;5073680;28;20083;-75
2022/10/17 05:00:14;;;;;;;6.70;2.15;;;;;;;16.35;35.01;100288.25;5057654;28;20126;-76
2022/10/17 05:02:40;;;;;;;3.08;1.75;;;;;;;16.90;33.77;100290.25;5072267;28;20036;-74
2022/10/17 05:05:06;;;;;;;5.20;1.90;;;;;;;17.47;32.79;100297.16;5056877;28;20036;-74
2022/10/17 05:07:31;;;;;;;10.45;2.50;;;;;;;17.99;31.60;100294.72;5073478;28;20029;-74
2022/10/17 05:09:57;;;;;;;7.63;2.05;;;;;;;18.45;30.82;100303.25;5073478;28;20033;-75
2022/10/17 05:12:23;;;;;;;3.47;1.80;;;;;;;18.86;30.18;100290.16;5073411;28;20142;-76
2022/10/17 05:14:48;;;;;;;7.22;2.05;;;;;;;19.32;29.62;100307.28;5073766;28;20511;-75
2022/10/17 05:17:14;;;;;;;6.68;2.42;;;;;;;19.73;28.99;100304.59;5073327;28;20476;-75
2022/10/17 05:19:39;;;;;;;3.78;1.90;;;;;;;20.06;28.35;100301.56;5056748;28;20033;-77
2022/10/17 05:22:05;;;;;;;2.72;2.13;;;;;;;20.48;27.71;100311.00;5074323;28;20463;-75
2022/10/17 05:24:31;;;;;;;9.27;2.03;;;;;;;20.90;27.17;100305.31;5057347;28;20393;-76
2022/10/17 05:26:56;;;;;;;10.18;2.10;;;;;;;21.40;26.55;100316.56;5073768;28;20044;-75
2022/10/17 05:29:22;;;;;;;3.75;2.05;;;;;;;21.84;26.00;100320.22;5073239;28;20157;-76
2022/10/17 05:31:47;;;;;;;6.55;2.33;;;;;;;22.29;25.51;100322.91;5074413;28;20032;-74
2022/10/17 05:34:13;;;;;;;5.85;2.10;;;;;;;22.70;25.06;100320.56;5073107;28;20066;-74
2022/10/17 05:36:39;;;;;;;8.35;2.00;;;;;;;23.10;24.38;100313.81;5071387;28;20099;-75
2022/10/17 05:39:04;;;;;;;9.20;2.03;;;;;;;23.52;23.91;100312.94;5045922;28;20499;-76
2022/10/17 05:41:30;;;;;;;7.75;2.00;;;;;;;23.82;28.26;100329.34;5024642;28;20028;-74
2022/10/17 05:43:55;;;;;;;11.88;2.22;;;;;;;23.80;23.82;100331.34;5072260;28;20508;-80
2022/10/17 05:46:21;;;;;;;17.00;2.58;;;;;;;23.62;23.28;100323.47;5076260;28;20511;-82
2022/10/17 05:48:47;;;;;;;9.07;2.10;;;;;;;23.50;23.28;100336.28;5057663;28;20033;-78
2022/10/17 05:51:14;;;;;;;5.28;2.00;;;;;;;23.38;23.46;100326.91;5073222;28;20036;-79
2022/10/17 05:53:40;;;;;;;4.90;1.95;;;;;;;23.41;23.87;100332.75;5072674;28;20421;-79
2022/10/17 05:56:07;;;;;;;8.45;2.05;;;;;;;23.48;23.59;100339.09;5090269;28;20036;-78
2022/10/17 05:58:33;;;;;;;7.20;2.05;;;;;;;23.31;23.73;100332.06;5048603;28;20116;-82
2022/10/17 06:01:04;;;;;;;9.23;2.38;;;;;;;23.45;25.53;100341.22;5049651;28;20055;-78
2022/10/17 06:03:30;;;;;;;8.80;2.22;;;;;;;23.46;24.09;100342.91;5063587;28;20771;-84
2022/10/17 06:05:55;;;;;;;7.10;1.88;;;;;;;23.49;24.01;100340.75;5030748;28;20116;-76
2022/10/17 06:08:21;;;;;;;17.88;2.25;;;;;;;23.62;23.83;100345.63;5050470;28;20064;-85
2022/10/17 06:10:48;;;;;;;9.13;1.80;;;;;;;23.56;23.85;100332.09;5064034;28;20029;-85
2022/10/17 06:13:14;;;;;;;4.65;2.10;;;;;;;23.81;23.28;100346.31;5059716;28;20024;-86
2022/10/17 06:15:39;;;;;;;7.70;2.00;;;;;;;23.92;23.40;100353.22;5070091;28;20071;-78
2022/10/17 06:18:05;;;;;;;4.97;2.03;;;;;;;24.08;23.33;100349.72;5061456;28;20113;-78
2022/10/17 06:20:30;;;;;;;5.38;2.90;;;;;;;24.25;22.96;100348.72;5032343;28;20029;-77
2022/10/17 06:22:56;;;;;;;4.18;1.80;;;;;;;24.57;22.89;100349.75;5060754;28;20112;-84
2022/10/17 06:25:21;;;;;;;4.63;2.00;;;;;;;24.83;22.38;100354.88;5046031;28;20120;-83
2022/10/17 06:27:47;;;;;;;7.75;2.08;;;;;;;25.19;22.17;100356.25;5046273;28;20515;-85
2022/10/17 06:30:14;;;;;;;4.97;1.70;;;;;;;25.56;21.74;100352.94;5056473;28;20106;-80
2022/10/17 06:32:40;;;;;;;6.77;1.93;;;;;;;25.56;21.64;100352.13;5030502;28;20162;-80
2022/10/17 06:35:06;;;;;;;6.10;1.55;;;;;;;26.07;21.45;100351.66;5043794;28;20032;-80
2022/10/17 06:37:32;;;;;;;3.00;1.40;;;;;;;26.63;21.10;100364.72;5042586;28;20048;-78
2022/10/17 06:39:58;;;;;;;6.53;2.00;;;;;;;27.29;20.84;100356.00;5044828;28;20095;-88
2022/10/17 06:42:31;;;;;;;4.63;1.45;;;;;;;28.01;20.16;100359.75;5050734;28;20032;-85
2022/10/17 06:44:57;;;;;;;5.15;1.67;;;;;;;28.79;19.15;100349.03;5064701;28;20021;-82
2022/10/17 06:47:23;;;;;;;6.07;1.50;;;;;;;29.47;18.26;100359.91;5045197;28;20056;-83
2022/10/17 06:49:49;;;;;;;9.63;1.90;;;;;;;30.37;17.35;100361.56;5034749;28;20500;-83
2022/10/17 06:52:17;;;;;;;9.63;1.50;;;;;;;31.20;16.43;100356.47;5066326;28;20028;-86
2022/10/17 06:54:43;;;;;;;223.13;54.75;;;;;;;31.70;19.49;100355.00;5057528;28;20044;-78
2022/10/17 06:57:09;;;;;;;5.03;1.77;;;;;;;32.05;16.93;100352.69;5031341;28;20384;-79
2022/10/17 06:59:44;;;;;;;2.97;1.70;;;;;;;32.16;15.81;100358.47;5048215;28;20039;-85
2022/10/17 07:02:27;;;;;;;2.17;1.13;;;;;;;31.85;16.76;100357.38;5052580;28;20423;-83
2022/10/17 07:04:55;;;;;;;4.05;1.30;;;;;;;31.24;15.95;100362.25;5069380;28;20052;-86
2022/10/17 07:07:20;;;;;;;2.45;1.10;;;;;;;30.77;17.51;100362.34;5032603;28;20121;-80
2022/10/17 07:09:46;;;;;;;9.43;1.42;;;;;;;30.46;17.47;100371.13;5059758;28;20063;-79
2022/10/17 07:12:11;;;;;;;4.03;1.20;;;;;;;30.24;17.06;100365.91;5022455;28;20063;-79
2022/10/17 07:14:37;;;;;;;5.95;1.52;;;;;;;30.25;19.32;100374.81;5029959;28;20036;-84
2022/10/17 07:17:03;;;;;;;8.30;1.40;;;;;;;29.97;17.97;100370.44;5064020;28;20038;-81
2022/10/17 07:19:29;;;;;;;7.32;1.70;;;;;;;30.10;17.88;100373.13;5055661;28;20021;-84
2022/10/17 07:21:54;;;;;;;3.45;1.65;;;;;;;30.16;17.99;100374.19;5046535;28;20040;-88
2022/10/17 07:24:20;;;;;;;5.95;1.48;;;;;;;30.16;19.25;100376.03;5027102;28;20148;-83
2022/10/17 07:26:45;;;;;;;5.53;1.40;;;;;;;30.18;18.44;100379.38;5044388;28;20113;-84
2022/10/17 07:29:12;;;;;;;3.55;1.35;;;;;;;30.12;18.48;100370.25;5046618;28;20059;-85
2022/10/17 07:31:37;;;;;;;4.38;1.55;;;;;;;30.03;20.08;100379.53;5060025;28;20086;-79
2022/10/17 07:34:03;;;;;;;9.63;1.73;;;;;;;30.16;18.97;100378.72;5026475;28;20123;-81
2022/10/17 07:36:28;;;;;;;3.58;1.50;;;;;;;30.19;18.47;100379.16;5044024;28;20091;-86
2022/10/17 07:38:54;;;;;;;3.42;1.50;;;;;;;30.21;17.56;100381.66;5034348;28;20033;-85
2022/10/17 07:41:20;;;;;;;7.82;1.30;;;;;;;30.23;17.51;100376.88;5060696;28;20029;-86
2022/10/17 07:43:45;;;;;;;2.28;1.30;;;;;;;30.27;18.57;100378.97;5054751;28;20064;-85
2022/10/17 07:46:12;;;;;;;5.03;1.30;;;;;;;30.18;18.29;100374.81;5058514;28;20094;-84
2022/10/17 07:48:38;;;;;;;1.92;1.25;;;;;;;30.22;16.47;100375.22;5041850;28;20033;-84
2022/10/17 07:51:06;;;;;;;2.80;1.30;;;;;;;30.15;17.13;100369.81;5058574;28;20044;-79
2022/10/17 07:53:34;;;;;;;4.70;1.30;;;;;;;30.25;16.66;100370.25;5057574;28;20020;-79
2022/10/17 07:56:03;;;;;;;5.13;1.23;;;;;;;30.24;16.49;100367.78;5043740;28;20434;-76
2022/10/17 07:58:30;;;;;;;5.93;1.30;;;;;;;30.26;16.77;100371.91;5057810;28;20091;-76
2022/10/17 08:00:59;;;;;;;4.43;1.65;;;;;;;30.24;15.55;100375.84;5043577;28;20410;-80
2022/10/17 08:03:25;;;;;;;8.63;1.50;;;;;;;30.12;16.25;100364.84;5041829;28;20028;-80
2022/10/17 08:05:51;;;;;;;10.05;1.50;;;;;;;30.06;16.89;100369.22;5044545;28;20041;-85
2022/10/17 08:08:17;;;;;;;6.13;1.67;;;;;;;30.06;17.90;100369.22;5041959;28;20392;-86
2022/10/17 08:10:43;;;;;;;6.72;1.50;;;;;;;30.08;17.07;100367.13;5060144;28;20526;-84
2022/10/17 08:13:09;;;;;;;6.88;1.50;;;;;;;30.06;17.46;100366.53;5046935;28;20041;-83
2022/10/17 08:15:36;;;;;;;5.55;1.30;;;;;;;30.03;18.50;100360.69;5058796;28;20064;-82
2022/10/17 08:18:03;;;;;;;5.68;1.20;;;;;;;29.96;19.09;100360.69;5045995;28;20028;-84
2022/10/17 08:20:28;;;;;;;7.82;1.23;;;;;;;29.84;19.13;100362.31;5048431;28;20111;-85
2022/10/17 08:22:54;;;;;;;5.53;1.35;;;;;;;29.68;19.02;100360.81;5062642;28;20021;-81
2022/10/17 08:25:23;;;;;;;5.75;1.30;;;;;;;29.29;19.27;100365.88;5045140;28;20047;-84
2022/10/17 08:27:48;;;;;;;12.45;1.63;;;;;;;29.41;19.34;100360.72;5044592;28;20021;-87
2022/10/17 08:30:14;;;;;;;13.63;1.40;;;;;;;29.54;18.55;100368.84;5058777;28;20055;-77
2022/10/17 08:32:39;;;;;;;4.55;1.40;;;;;;;29.72;20.13;100365.59;5069844;28;20071;-79
2022/10/17 08:35:05;;;;;;;7.00;1.50;;;;;;;30.15;20.15;100367.13;5052831;28;20540;-78
2022/10/17 08:37:31;;;;;;;5.95;1.42;;;;;;;30.62;19.99;100372.56;5057765;28;20044;-78
2022/10/17 08:39:57;;;;;;;3.60;1.63;;;;;;;30.91;19.32;100373.94;5059173;28;20140;-77
2022/10/17 08:42:45;;;;;;;4.72;1.30;;;;;;;31.17;18.93;100370.38;5059388;28;20036;-78
2022/10/17 08:45:35;;;;;;;5.75;1.15;;;;;;;31.40;18.61;100371.72;5075600;28;20097;-78
2022/10/17 08:48:03;;;;;;;6.00;1.52;;;;;;;31.43;18.90;100355.13;4972911;28;20453;-77
2022/10/17 08:50:34;;;;;;;5.43;1.48;;;;;;;31.49;18.44;100366.94;4956805;28;20073;-78
2022/10/17 08:53:05;;;;;;;7.35;1.40;;;;;;;31.49;18.40;100364.22;4972578;28;20043;-76
2022/10/17 08:55:39;;;;;;;5.72;1.30;;;;;;;31.55;18.53;100361.53;4956721;28;20043;-77
2022/10/17 08:58:16;;;;;;;4.55;1.50;;;;;;;31.67;18.95;100361.66;4971571;28;20043;-76
2022/10/17 09:01:05;;;;;;;4.30;1.50;;;;;;;31.82;19.01;100345.16;4960360;28;20034;-77
2022/10/17 09:03:56;;;;;;;5.53;1.33;;;;;;;32.13;18.57;100358.91;4991656;28;20038;-77
2022/10/17 09:06:28;;;;;;;7.15;1.27;;;;;;;32.24;18.06;100353.59;4955407;28;20487;-77
2022/10/17 09:09:15;;;;;;;9.20;1.60;;;;;;;32.32;17.42;100348.97;4922066;29;20443;-77
2022/10/17 09:11:47;;;;;;;6.57;1.30;;;;;;;32.60;17.12;100349.31;4952887;29;20503;-78
2022/10/17 09:14:33;;;;;;;3.72;1.30;;;;;;;32.75;17.95;100348.16;4952847;29;20030;-77
2022/10/17 09:17:31;;;;;;;10.52;1.85;;;;;;;32.87;17.13;100353.66;4946631;28;20494;-79
2022/10/17 09:20:08;;;;;;;5.07;1.40;;;;;;;32.91;16.71;100347.59;4919338;29;20095;-82
2022/10/17 09:22:38;;;;;;;5.28;1.33;;;;;;;32.95;17.10;100343.38;4935823;29;20039;-77
2022/10/17 09:25:08;;;;;;;2.83;1.52;;;;;;;32.99;17.99;100341.06;4977868;28;20037;-77
2022/10/17 09:27:37;;;;;;;7.78;1.33;;;;;;;33.10;17.02;100342.16;5014742;28;20120;-78
2022/10/17 09:30:15;;;;;;;2.45;1.17;;;;;;;33.09;17.78;100352.16;4997257;28;20140;-76
2022/10/17 09:32:41;;;;;;;2.80;1.20;;;;;;;33.10;17.84;100356.53;5010776;28;20129;-78
2022/10/17 09:35:16;;;;;;;4.15;1.40;;;;;;;33.06;17.76;100349.09;4994841;28;20038;-77
2022/10/17 09:37:42;;;;;;;14.93;1.30;;;;;;;33.03;17.40;100342.25;4994760;28;20104;-76
2022/10/17 09:40:12;;;;;;;5.85;1.50;;;;;;;33.04;17.62;100348.50;5004571;28;20065;-78
2022/10/17 09:42:37;;;;;;;3.72;1.20;;;;;;;32.98;17.73;100344.81;5011887;28;20032;-77
2022/10/17 09:45:24;;;;;;;5.38;1.30;;;;;;;32.81;18.19;100344.56;5095451;28;20050;-76
2022/10/17 09:48:12;;;;;;;7.70;1.65;;;;;;;32.85;17.87;100351.19;5096142;28;20030;-75
2022/10/17 09:50:37;;;;;;;3.22;1.20;;;;;;;32.77;17.83;100340.69;5111970;28;20043;-75
2022/10/17 09:53:11;;;;;;;4.88;1.38;;;;;;;32.75;17.64;100338.19;5078801;28;20474;-79
2022/10/17 09:55:37;;;;;;;3.35;1.27;;;;;;;32.70;18.27;100329.09;5080271;28;20035;-81
2022/10/17 09:58:05;;;;;;;4.60;1.45;;;;;;;32.71;18.09;100322.66;5096088;28;20019;-81
2022/10/17 10:00:42;;;;;;;7.55;1.45;;;;;;;32.63;18.35;100332.69;5078710;28;20031;-81
2022/10/17 10:03:16;;;;;;;5.18;1.27;;;;;;;32.17;17.02;100319.59;5079892;28;20035;-83
2022/10/17 10:05:43;;;;;;;9.60;1.30;;;;;;;31.62;17.40;100320.19;5112749;28;20505;-83
2022/10/17 10:08:16;;;;;;;28.17;1.90;;;;;;;31.08;17.14;100322.28;5063303;28;20024;-86
2022/10/17 10:10:42;;;;;;;15.15;1.70;;;;;;;30.44;17.90;100322.00;5098331;28;20042;-83
2022/10/17 10:13:19;;;;;;;6.97;1.52;;;;;;;30.33;18.37;100328.81;5081233;28;20028;-80
2022/10/17 10:15:48;;;;;;;13.73;1.52;;;;;;;30.26;18.66;100311.81;5106420;28;20039;-88
2022/10/17 10:18:34;;;;;;;13.23;1.45;;;;;;;30.21;18.35;100333.19;5070947;28;20126;-86
2022/10/17 10:21:15;;;;;;;8.35;1.70;;;;;;;30.20;19.10;100326.94;5099571;28;20114;-87
2022/10/17 10:23:42;;;;;;;4.63;1.30;;;;;;;30.19;18.93;100330.69;5092530;28;20066;-90
2022/10/17 10:26:21;;;;;;;9.43;1.27;;;;;;;30.07;18.62;100308.09;5095652;28;20044;-90
2022/10/17 10:28:52;;;;;;;10.05;1.35;;;;;;;29.98;19.04;100310.16;5116419;22;20104;-88
2022/10/17 10:31:29;;;;;;;9.57;1.48;;;;;;;29.84;19.19;100308.50;5082086;28;20434;-87
2022/10/17 10:33:55;;;;;;;6.85;1.30;;;;;;;29.67;19.13;100308.03;5083803;28;20040;-91
2022/10/17 10:36:21;;;;;;;14.88;1.75;;;;;;;29.51;19.38;100306.53;5086252;28;20562;-86
2022/10/17 10:38:55;;;;;;;4.85;1.50;;;;;;;29.26;21.35;100307.09;5064492;28;20106;-92
2022/10/17 10:41:20;;;;;;;5.90;1.38;;;;;;;29.18;20.37;100302.69;5079855;28;20629;-85
2022/10/17 10:43:47;;;;;;;6.97;1.50;;;;;;;29.16;20.11;100304.75;5064628;28;20016;-82
2022/10/17 10:46:20;;;;;;;3.90;1.30;;;;;;;29.09;19.70;100311.13;5062692;28;20032;-81
2022/10/17 10:49:30;;;;;;;6.18;1.58;;;;;;;28.99;20.32;100300.75;5060805;28;20039;-87
2022/10/17 10:51:56;;;;;;;4.35;1.50;;;;;;;28.78;21.46;100304.34;5041160;28;20044;-89
2022/10/17 10:54:31;;;;;;;4.43;1.40;;;;;;;28.56;20.73;100293.69;5005474;28;20546;-88
2022/10/17 10:56:58;;;;;;;3.25;1.65;;;;;;;28.22;20.07;100302.53;5043642;28;20048;-88
2022/10/17 11:00:01;;;;;;;4.63;1.70;;;;;;;27.86;19.65;100292.69;5015696;28;20032;-84
2022/10/17 11:02:51;;;;;;;6.78;1.95;;;;;;;27.81;19.89;100301.31;5047583;28;20341;-86
2022/10/17 11:05:21;;;;;;;4.88;1.45;;;;;;;27.68;19.88;100293.13;5036528;28;20067;-81
2022/10/17 11:07:47;;;;;;;7.47;1.75;;;;;;;27.18;20.48;100283.06;5000147;28;20033;-81
2022/10/17 11:10:33;;;;;;;5.80;1.42;;;;;;;26.93;21.17;100271.84;5049794;28;20048;-81
2022/10/17 11:13:00;;;;;;;5.15;1.60;;;;;;;26.95;21.84;100271.66;5033036;28;20029;-83
2022/10/17 11:15:34;;;;;;;5.28;1.77;;;;;;;27.06;21.99;100287.25;5033380;28;20098;-83
2022/10/17 11:18:15;;;;;;;7.25;1.60;;;;;;;26.90;21.31;100288.31;5033505;28;20141;-85
2022/10/17 11:21:00;;;;;;;10.90;1.75;;;;;;;26.80;21.77;100279.69;5034298;28;20041;-83
2022/10/17 11:23:32;;;;;;;3.45;1.60;;;;;;;26.71;22.57;100273.63;5001227;28;20404;-82
2022/10/17 11:25:59;;;;;;;5.00;1.40;;;;;;;26.66;22.20;100282.22;5017208;28;20064;-82
2022/10/17 11:28:24;;;;;;;8.93;1.90;;;;;;;26.48;22.28;100271.00;5043350;28;20063;-83
2022/10/17 11:31:01;;;;;;;4.32;1.83;;;;;;;26.25;22.66;100263.88;5057758;28;20082;-83
2022/10/17 11:33:28;;;;;;;6.03;1.55;;;;;;;26.00;23.84;100273.97;5074383;28;20469;-87
2022/10/17 11:35:56;;;;;;;8.13;1.63;;;;;;;25.86;23.87;100264.84;5057120;28;20483;-80
2022/10/17 11:38:24;;;;;;;8.48;1.75;;;;;;;25.69;24.38;100274.00;5057024;28;20031;-82